Time;durP1;ratioP1;P1;durP2;ratioP2;P2;SDS_P1;SDS_P2;PMS_P1;PMS_P2;Temp;Humidity;BMP_temperature;BMP_pressure;BME280_temperature;BME280_humidity;BME280_pressure;Samples;Min_cycle;Max_cycle;Signal;HPM_P1;HPM_P2
2021/06/02 00:02:21;;;;;;;1.87;1.40;;;15.10;99.90;;;;;;5025310;28;20699;-87
2021/06/02 00:04:51;;;;;;;2.70;1.80;;;15.00;99.90;;;;;;5023251;28;20709;-87
2021/06/02 00:07:24;;;;;;;1.50;1.40;;;15.00;99.90;;;;;;5035685;28;20220;-89
2021/06/02 00:09:53;;;;;;;2.37;1.50;;;14.90;99.90;;;;;;5018147;28;20630;-86
2021/06/02 00:12:19;;;;;;;1.93;1.73;;;14.90;99.90;;;;;;5022072;28;20689;-86
2021/06/02 00:14:45;;;;;;;2.03;1.50;;;14.90;99.90;;;;;;5021923;28;20734;-87
2021/06/02 00:17:11;;;;;;;1.83;1.70;;;14.90;99.90;;;;;;5021697;28;20755;-88
2021/06/02 00:19:37;;;;;;;1.60;1.50;;;14.80;99.90;;;;;;5021957;28;20685;-88
2021/06/02 00:22:06;;;;;;;2.70;1.73;;;14.70;99.90;;;;;;5021637;28;21187;-86
2021/06/02 00:24:33;;;;;;;2.17;1.63;;;14.70;99.90;;;;;;5017862;28;20650;-87
2021/06/02 00:27:02;;;;;;;2.10;1.53;;;14.70;99.90;;;;;;5025420;28;20647;-87
2021/06/02 00:29:33;;;;;;;1.53;1.43;;;14.70;99.90;;;;;;5022195;28;20778;-88
2021/06/02 00:32:01;;;;;;;1.77;1.17;;;14.70;99.90;;;;;;5040342;28;21233;-88
2021/06/02 00:34:27;;;;;;;2.60;1.60;;;14.70;99.90;;;;;;5022313;28;20714;-86
2021/06/02 00:36:53;;;;;;;1.80;1.53;;;14.60;99.90;;;;;;5019210;28;20794;-85
2021/06/02 00:39:19;;;;;;;1.50;1.40;;;14.60;99.90;;;;;;5025609;28;20248;-90
2021/06/02 00:41:47;;;;;;;1.53;1.40;;;14.70;99.90;;;;;;5023837;28;20212;-86
2021/06/02 00:44:15;;;;;;;1.27;1.17;;;14.60;99.90;;;;;;5026225;28;20653;-87
2021/06/02 00:46:43;;;;;;;1.70;1.50;;;14.60;99.90;;;;;;5023777;28;21299;-88
2021/06/02 00:49:11;;;;;;;1.50;1.40;;;14.70;99.90;;;;;;5026215;28;20627;-86
2021/06/02 00:51:37;;;;;;;1.50;1.40;;;14.50;99.90;;;;;;5026072;28;20630;-86
2021/06/02 00:54:05;;;;;;;2.30;1.63;;;14.50;99.90;;;;;;5046077;28;20651;-88
2021/06/02 00:56:49;;;;;;;1.43;1.33;;;14.50;99.90;;;;;;5026037;28;20201;-86
2021/06/02 00:59:18;;;;;;;2.00;1.40;;;14.50;99.90;;;;;;5044536;28;20635;-87
2021/06/02 01:01:44;;;;;;;1.63;1.53;;;14.40;99.90;;;;;;5023164;28;20612;-85
2021/06/02 01:04:10;;;;;;;1.50;1.40;;;14.40;99.90;;;;;;5027383;28;20661;-85
2021/06/02 01:06:35;;;;;;;1.70;1.60;;;14.40;99.90;;;;;;5025869;28;20799;-87
2021/06/02 01:09:06;;;;;;;2.20;1.43;;;14.40;99.90;;;;;;5027149;28;20197;-87
2021/06/02 01:11:33;;;;;;;1.20;1.10;;;14.40;99.90;;;;;;5025168;28;20245;-88
2021/06/02 01:14:00;;;;;;;1.20;1.20;;;14.30;99.90;;;;;;5025296;28;20718;-87
2021/06/02 01:16:32;;;;;;;2.23;1.40;;;14.40;99.90;;;;;;5026407;28;20635;-85
2021/06/02 01:18:58;;;;;;;1.53;1.43;;;14.40;99.90;;;;;;5025608;28;20640;-86
2021/06/02 01:21:27;;;;;;;1.60;1.50;;;14.30;99.90;;;;;;5028142;28;20719;-86
2021/06/02 01:23:57;;;;;;;2.03;1.93;;;14.30;99.90;;;;;;5031501;28;20731;-89
2021/06/02 01:26:24;;;;;;;1.57;1.47;;;14.20;99.90;;;;;;5037343;28;20638;-88
2021/06/02 01:28:51;;;;;;;1.43;1.33;;;14.20;99.90;;;;;;5035354;28;20691;-85
2021/06/02 01:31:32;;;;;;;1.63;1.53;;;14.20;99.90;;;;;;5035571;28;20619;-89
2021/06/02 01:34:53;;;;;;;2.03;1.40;;;14.20;99.90;;;;;;5025573;28;20646;-85
2021/06/02 01:38:04;;;;;;;1.60;1.40;;;14.20;99.90;;;;;;4984619;28;20755;-86
2021/06/02 01:41:09;;;;;;;1.73;1.50;;;14.20;99.90;;;;;;4969152;28;20654;-88
2021/06/02 01:43:52;;;;;;;1.87;1.50;;;14.20;99.90;;;;;;5032191;28;20647;-85
2021/06/02 01:46:56;;;;;;;2.97;1.53;;;14.20;99.90;;;;;;5026617;28;20668;-87
2021/06/02 01:49:47;;;;;;;2.20;1.67;;;14.10;99.90;;;;;;5039760;28;20666;-87
2021/06/02 01:52:34;;;;;;;1.57;1.47;;;14.10;99.90;;;;;;5040217;28;20690;-87
2021/06/02 01:55:37;;;;;;;1.20;1.10;;;14.10;99.90;;;;;;5024100;28;20662;-86
2021/06/02 01:58:05;;;;;;;1.53;1.43;;;14.10;99.90;;;;;;5024663;28;20681;-88
2021/06/02 02:00:55;;;;;;;1.80;1.70;;;14.10;99.90;;;;;;5026453;28;20623;-86
2021/06/02 02:03:58;;;;;;;1.70;1.60;;;14.00;99.90;;;;;;5041626;28;20627;-87
2021/06/02 02:06:59;;;;;;;1.63;1.53;;;14.10;99.90;;;;;;5023043;28;20697;-87
2021/06/02 02:09:38;;;;;;;1.43;1.33;;;14.00;99.90;;;;;;5024752;28;20623;-87
2021/06/02 02:12:35;;;;;;;1.80;1.67;;;14.00;99.90;;;;;;5024877;28;20650;-87
2021/06/02 02:15:29;;;;;;;1.47;1.17;;;14.00;99.90;;;;;;5049914;28;20624;-86
2021/06/02 02:18:32;;;;;;;2.40;1.70;;;13.90;99.90;;;;;;5030080;28;20725;-86
2021/06/02 02:21:27;;;;;;;1.90;1.50;;;14.00;99.90;;;;;;5031198;28;21168;-86
2021/06/02 02:24:16;;;;;;;1.60;1.33;;;14.00;99.90;;;;;;5033760;28;20746;-87
2021/06/02 02:27:16;;;;;;;1.80;1.70;;;14.30;99.90;;;;;;5046816;28;21027;-87
2021/06/02 02:29:59;;;;;;;1.60;1.40;;;13.90;99.90;;;;;;5050774;28;20630;-86
2021/06/02 02:32:27;;;;;;;1.80;1.70;;;14.00;99.90;;;;;;5031271;28;20631;-86
2021/06/02 02:35:30;;;;;;;2.27;1.43;;;13.90;99.90;;;;;;5028942;28;20635;-87
2021/06/02 02:38:15;;;;;;;1.63;1.40;;;13.90;99.90;;;;;;5034984;28;20651;-88
2021/06/02 02:41:15;;;;;;;1.60;1.50;;;13.90;99.90;;;;;;5029481;28;21200;-86
2021/06/02 02:43:55;;;;;;;2.70;2.00;;;13.90;99.90;;;;;;5031669;28;20713;-86
2021/06/02 02:46:48;;;;;;;2.00;1.90;;;13.90;99.90;;;;;;5045396;28;20622;-87
2021/06/02 02:49:16;;;;;;;1.63;1.40;;;13.80;99.90;;;;;;5027300;28;20615;-86
2021/06/02 02:52:02;;;;;;;1.83;1.73;;;14.00;99.90;;;;;;5024374;28;20733;-88
2021/06/02 02:54:38;;;;;;;3.37;1.83;;;13.70;99.90;;;;;;5039839;28;20639;-88
2021/06/02 02:57:31;;;;;;;1.77;1.67;;;13.70;99.90;;;;;;5033265;28;20710;-87
2021/06/02 03:00:09;;;;;;;3.30;1.67;;;13.70;99.90;;;;;;5030741;28;20634;-87
2021/06/02 03:02:54;;;;;;;2.20;1.37;;;13.70;99.90;;;;;;5027652;28;20619;-85
2021/06/02 03:05:26;;;;;;;1.60;1.50;;;13.70;99.90;;;;;;5029902;28;20630;-87
2021/06/02 03:08:07;;;;;;;2.13;1.70;;;13.60;99.90;;;;;;5024906;28;20689;-85
2021/06/02 03:10:39;;;;;;;1.90;1.30;;;13.70;99.90;;;;;;5026203;28;20665;-85
2021/06/02 03:13:37;;;;;;;2.03;1.80;;;13.60;99.90;;;;;;5031463;28;20607;-88
2021/06/02 03:16:09;;;;;;;1.90;1.70;;;13.60;99.90;;;;;;5031866;28;20784;-87
2021/06/02 03:18:58;;;;;;;1.80;1.70;;;13.60;99.90;;;;;;5033294;28;20623;-88
2021/06/02 03:21:47;;;;;;;2.93;1.77;;;13.60;99.90;;;;;;5027951;28;20627;-85
2021/06/02 03:24:22;;;;;;;1.83;1.73;;;13.50;99.90;;;;;;5026421;28;20636;-86
2021/06/02 03:27:09;;;;;;;1.90;1.80;;;13.50;99.90;;;;;;5033490;28;20662;-86
2021/06/02 03:30:04;;;;;;;2.90;1.70;;;13.50;99.90;;;;;;5034239;28;20635;-86
2021/06/02 03:32:56;;;;;;;2.07;1.90;;;13.50;99.90;;;;;;5024272;28;20611;-85
2021/06/02 03:35:45;;;;;;;2.40;1.67;;;13.50;99.90;;;;;;5022334;28;20961;-87
2021/06/02 03:38:34;;;;;;;1.90;1.80;;;13.50;99.90;;;;;;5029496;28;20714;-86
2021/06/02 03:41:18;;;;;;;2.23;1.73;;;13.60;99.90;;;;;;5031201;28;20618;-88
2021/06/02 03:43:50;;;;;;;3.17;2.03;;;13.60;99.90;;;;;;5039897;28;20632;-86
2021/06/02 03:46:33;;;;;;;2.93;1.83;;;13.60;99.90;;;;;;5042550;28;20707;-86
2021/06/02 03:49:14;;;;;;;2.10;1.90;;;13.60;99.90;;;;;;5024560;28;20635;-88
2021/06/02 03:51:57;;;;;;;2.13;2.00;;;13.50;99.90;;;;;;5022361;28;20620;-86
2021/06/02 03:54:56;;;;;;;3.50;1.80;;;13.50;99.90;;;;;;5024273;28;20651;-88
2021/06/02 03:57:57;;;;;;;1.90;1.70;;;13.50;99.90;;;;;;5020649;28;20702;-87
2021/06/02 04:00:33;;;;;;;2.33;1.90;;;13.50;99.90;;;;;;5024870;28;20760;-86
2021/06/02 04:03:01;;;;;;;2.20;2.00;;;13.50;99.90;;;;;;5022673;28;20651;-87
2021/06/02 04:05:46;;;;;;;2.13;1.93;;;13.50;99.90;;;;;;5026982;28;20608;-86
2021/06/02 04:08:18;;;;;;;3.20;2.60;;;13.50;99.90;;;;;;5040396;23;20662;-67
2021/06/02 04:11:00;;;;;;;2.20;2.00;;;13.70;99.90;;;;;;5023511;28;21221;-66
2021/06/02 04:14:00;;;;;;;3.97;2.30;;;13.50;99.90;;;;;;5020016;28;21307;-66
2021/06/02 04:16:40;;;;;;;2.40;2.13;;;13.60;99.90;;;;;;5012812;28;20608;-64
2021/06/02 04:19:10;;;;;;;4.27;2.33;;;13.50;99.90;;;;;;5017027;28;21588;-65
2021/06/02 04:21:41;;;;;;;2.63;2.33;;;13.60;99.90;;;;;;5006927;28;20726;-64
2021/06/02 04:24:10;;;;;;;4.00;2.93;;;13.50;99.90;;;;;;5012682;28;21213;-66
2021/06/02 04:26:39;;;;;;;4.23;2.77;;;13.50;99.90;;;;;;5019606;28;20619;-65
2021/06/02 04:29:10;;;;;;;2.90;2.53;;;13.50;99.90;;;;;;5011287;28;20647;-65
2021/06/02 04:31:56;;;;;;;2.73;2.50;;;13.50;99.90;;;;;;5019879;28;20682;-64
2021/06/02 04:34:24;;;;;;;3.77;3.00;;;13.60;99.90;;;;;;5019117;28;20647;-65
2021/06/02 04:36:56;;;;;;;3.40;2.40;;;13.50;99.90;;;;;;5028242;28;20619;-66
2021/06/02 04:39:23;;;;;;;3.90;2.50;;;13.60;99.90;;;;;;5019715;28;20848;-66
2021/06/02 04:41:52;;;;;;;3.73;3.10;;;13.60;99.90;;;;;;5012563;28;20629;-66
2021/06/02 04:44:26;;;;;;;4.80;3.17;;;13.70;99.90;;;;;;5002186;28;20805;-65
2021/06/02 04:46:54;;;;;;;3.40;3.13;;;13.70;99.90;;;;;;5020902;28;20617;-65
2021/06/02 04:49:27;;;;;;;4.50;2.97;;;13.70;99.90;;;;;;5012866;28;20712;-66
2021/06/02 04:52:05;;;;;;;3.60;2.93;;;13.80;99.90;;;;;;5010493;28;20686;-66
2021/06/02 04:55:19;;;;;;;3.30;3.00;;;13.90;99.90;;;;;;5019096;28;20728;-65
2021/06/02 04:58:27;;;;;;;3.40;3.10;;;14.00;99.90;;;;;;5017612;28;20790;-64
2021/06/02 05:01:16;;;;;;;5.53;3.27;;;14.00;99.90;;;;;;5015108;28;20733;-65
2021/06/02 05:04:19;;;;;;;5.00;3.23;;;14.00;99.90;;;;;;5010260;28;20643;-66
2021/06/02 05:07:03;;;;;;;4.07;3.10;;;14.00;99.90;;;;;;5001649;28;21411;-65
2021/06/02 05:10:06;;;;;;;3.33;3.00;;;14.10;99.90;;;;;;4998734;28;20659;-64
2021/06/02 05:12:32;;;;;;;4.30;3.60;;;14.10;99.90;;;;;;4993740;28;20615;-67
2021/06/02 05:15:31;;;;;;;5.90;3.23;;;14.20;99.90;;;;;;5001510;28;20632;-67
2021/06/02 05:18:29;;;;;;;3.37;3.07;;;14.20;99.90;;;;;;5000098;28;20209;-69
2021/06/02 05:24:08;;;;;;;5.30;3.60;;;14.20;99.90;;;;;;5001780;28;20937;-70
2021/06/02 05:27:07;;;;;;;5.47;3.63;;;14.20;99.90;;;;;;5004577;28;20619;-66
2021/06/02 05:30:06;;;;;;;6.53;4.23;;;14.30;99.90;;;;;;4998340;28;20678;-66
2021/06/02 05:32:32;;;;;;;4.30;3.90;;;14.20;99.90;;;;;;5002064;28;21211;-64
2021/06/02 05:35:01;;;;;;;4.93;3.97;;;14.20;99.90;;;;;;5000659;28;20697;-64
2021/06/02 05:38:17;;;;;;;5.73;3.70;;;14.20;99.90;;;;;;5016313;28;20228;-65
2021/06/02 05:41:01;;;;;;;5.87;3.90;;;14.20;99.90;;;;;;4977886;28;20666;-65
2021/06/02 05:43:45;;;;;;;5.23;4.23;;;14.30;99.90;;;;;;4978381;28;20631;-65
2021/06/02 05:46:41;;;;;;;5.90;4.00;;;14.30;99.90;;;;;;5008267;28;20682;-66
2021/06/02 05:49:55;;;;;;;4.57;4.17;;;14.30;99.90;;;;;;5015363;28;21019;-64
2021/06/02 05:52:39;;;;;;;6.03;4.00;;;14.30;99.90;;;;;;5001192;28;20619;-65
2021/06/02 05:55:12;;;;;;;4.47;3.87;;;14.30;99.90;;;;;;5017132;28;21140;-65
2021/06/02 05:58:09;;;;;;;4.30;3.90;;;14.40;99.90;;;;;;5025017;28;21048;-66
2021/06/02 06:01:09;;;;;;;4.13;3.67;;;14.50;99.90;;;;;;5023517;28;20644;-65
2021/06/02 06:04:16;;;;;;;4.00;3.67;;;14.50;99.90;;;;;;5005417;28;20634;-64
2021/06/02 06:06:53;;;;;;;7.03;3.90;;;14.60;99.90;;;;;;5006884;28;20621;-65
2021/06/02 06:09:38;;;;;;;6.97;3.87;;;14.60;99.90;;;;;;5017881;28;21286;-65
2021/06/02 06:12:25;;;;;;;3.70;3.40;;;14.60;99.90;;;;;;5011574;28;20667;-65
2021/06/02 06:15:11;;;;;;;4.13;3.73;;;14.60;99.90;;;;;;5015578;28;20740;-65
2021/06/02 06:18:11;;;;;;;4.60;3.40;;;14.60;99.90;;;;;;5020258;28;20913;-65
2021/06/02 06:21:05;;;;;;;5.50;3.40;;;14.70;99.90;;;;;;5011022;28;20727;-66
2021/06/02 06:23:46;;;;;;;3.70;3.40;;;14.80;99.90;;;;;;5008111;28;20714;-66
2021/06/02 06:26:22;;;;;;;5.67;3.20;;;14.80;99.90;;;;;;5018278;28;20757;-66
2021/06/02 06:29:04;;;;;;;3.77;3.10;;;14.90;99.90;;;;;;5009395;28;20649;-66
2021/06/02 06:31:38;;;;;;;4.80;3.47;;;15.00;99.90;;;;;;5016691;28;20615;-66
2021/06/02 06:34:08;;;;;;;3.80;3.50;;;15.10;99.90;;;;;;5030370;28;21204;-66
2021/06/02 06:36:38;;;;;;;5.00;3.60;;;15.10;99.90;;;;;;5023693;28;20651;-66
2021/06/02 06:39:36;;;;;;;4.77;3.03;;;15.20;99.90;;;;;;5023920;28;20710;-66
2021/06/02 06:42:02;;;;;;;3.23;2.80;;;15.20;99.90;;;;;;5012140;28;21276;-68
2021/06/02 06:44:29;;;;;;;5.03;3.40;;;15.20;99.90;;;;;;5016526;28;20642;-66
2021/06/02 06:46:56;;;;;;;3.30;2.80;;;15.30;99.90;;;;;;5027090;28;21170;-66
2021/06/02 06:49:24;;;;;;;3.93;3.07;;;15.30;99.90;;;;;;5021333;28;20648;-66
2021/06/02 06:51:53;;;;;;;3.73;3.20;;;15.40;99.90;;;;;;5028017;28;20623;-66
2021/06/02 06:54:22;;;;;;;5.67;3.60;;;15.50;99.90;;;;;;5024834;28;20639;-66
2021/06/02 06:56:49;;;;;;;3.77;3.37;;;15.50;99.90;;;;;;5017485;28;22282;-66
2021/06/02 06:59:19;;;;;;;4.13;3.40;;;15.60;99.90;;;;;;5024940;28;21260;-66
2021/06/02 07:01:45;;;;;;;3.57;3.27;;;15.70;99.90;;;;;;5004732;28;22186;-66
2021/06/02 07:04:11;;;;;;;3.60;3.13;;;15.90;99.90;;;;;;5007988;28;20644;-66
2021/06/02 07:06:40;;;;;;;3.73;3.43;;;15.90;99.90;;;;;;5019521;28;20638;-65
2021/06/02 07:09:06;;;;;;;4.60;3.10;;;15.90;99.90;;;;;;5030718;28;20654;-66
2021/06/02 07:11:41;;;;;;;3.60;3.30;;;16.00;99.90;;;;;;5019187;28;21217;-65
2021/06/02 07:14:14;;;;;;;2.70;2.50;;;16.10;99.90;;;;;;5026359;28;21223;-66
2021/06/02 07:16:41;;;;;;;5.13;3.80;;;16.20;99.90;;;;;;5016511;28;20607;-66
2021/06/02 07:19:08;;;;;;;3.37;3.10;;;16.30;99.90;;;;;;5011965;28;20671;-66
2021/06/02 07:21:35;;;;;;;4.53;3.70;;;16.40;99.90;;;;;;5022040;28;20611;-66
2021/06/02 07:24:02;;;;;;;3.23;2.93;;;16.40;99.90;;;;;;5027682;28;20658;-66
2021/06/02 07:26:28;;;;;;;3.07;2.83;;;16.40;99.90;;;;;;5025825;28;20610;-66
2021/06/02 07:28:54;;;;;;;6.07;3.20;;;16.40;99.90;;;;;;5015238;28;24083;-66
2021/06/02 07:31:22;;;;;;;3.73;2.97;;;16.50;99.90;;;;;;5014304;28;20623;-66
2021/06/02 07:33:47;;;;;;;3.00;2.77;;;16.60;99.90;;;;;;5016466;28;20706;-66
2021/06/02 07:36:13;;;;;;;3.13;2.93;;;16.80;99.90;;;;;;5025134;28;20616;-66
2021/06/02 07:38:40;;;;;;;5.07;2.97;;;16.70;99.90;;;;;;5020806;28;20258;-66
2021/06/02 07:41:08;;;;;;;2.67;2.47;;;16.90;99.90;;;;;;5030453;28;20267;-66
2021/06/02 07:43:34;;;;;;;3.70;3.00;;;16.90;99.90;;;;;;5028905;28;20685;-65
2021/06/02 07:46:00;;;;;;;4.00;3.30;;;16.90;99.90;;;;;;5023859;28;21165;-66
2021/06/02 07:48:26;;;;;;;3.10;2.37;;;17.00;99.90;;;;;;5021775;28;20629;-66
2021/06/02 07:50:54;;;;;;;2.97;2.67;;;17.10;99.90;;;;;;5018015;28;21690;-66
2021/06/02 07:53:20;;;;;;;3.20;2.90;;;17.20;99.90;;;;;;5022866;28;20224;-65
2021/06/02 07:55:46;;;;;;;2.60;2.40;;;17.20;99.90;;;;;;5016873;28;20623;-65
2021/06/02 07:58:11;;;;;;;4.03;2.90;;;17.20;99.90;;;;;;5016495;28;20692;-65
2021/06/02 08:00:39;;;;;;;3.03;2.53;;;17.30;99.90;;;;;;5021215;28;20204;-65
2021/06/02 08:03:05;;;;;;;3.90;2.67;;;17.40;99.90;;;;;;5006579;28;20317;-65
2021/06/02 08:05:33;;;;;;;7.70;3.37;;;17.40;99.90;;;;;;5025507;28;20651;-66
2021/06/02 08:07:58;;;;;;;3.60;2.40;;;17.40;99.90;;;;;;5018773;28;20315;-65
2021/06/02 08:10:25;;;;;;;3.40;3.20;;;17.40;99.90;;;;;;5024914;28;20640;-65
2021/06/02 08:12:51;;;;;;;2.70;2.50;;;17.50;99.90;;;;;;5015795;28;20217;-64
2021/06/02 08:15:17;;;;;;;3.00;2.67;;;17.60;99.90;;;;;;5014648;28;20766;-67
2021/06/02 08:17:44;;;;;;;2.90;2.70;;;17.60;99.90;;;;;;5018896;28;20671;-65
2021/06/02 08:20:12;;;;;;;3.50;3.07;;;17.70;99.90;;;;;;5018312;28;20651;-65
2021/06/02 08:22:38;;;;;;;3.57;3.27;;;17.70;99.90;;;;;;4999739;28;20617;-65
2021/06/02 08:25:09;;;;;;;3.37;3.00;;;17.80;99.90;;;;;;5018936;28;20684;-66
2021/06/02 08:27:35;;;;;;;2.87;2.67;;;17.90;99.90;;;;;;5024153;28;20713;-66
2021/06/02 08:30:03;;;;;;;5.80;2.90;;;18.00;99.90;;;;;;5007502;28;20640;-66
2021/06/02 08:32:29;;;;;;;3.17;2.87;;;18.00;99.90;;;;;;5023283;28;20740;-65
2021/06/02 08:34:54;;;;;;;4.67;2.70;;;18.10;99.90;;;;;;5007172;28;20646;-66
2021/06/02 08:37:22;;;;;;;7.80;3.13;;;18.20;99.90;;;;;;5009102;28;20187;-65
2021/06/02 08:39:48;;;;;;;3.17;2.87;;;18.20;99.90;;;;;;5006915;28;20206;-65
2021/06/02 08:42:15;;;;;;;2.97;2.73;;;18.20;99.90;;;;;;5024725;28;20608;-65
2021/06/02 08:44:41;;;;;;;4.13;3.67;;;18.30;99.90;;;;;;5019085;28;20256;-65
2021/06/02 08:47:07;;;;;;;3.33;2.80;;;18.40;99.90;;;;;;5010264;28;20742;-65
2021/06/02 08:49:33;;;;;;;3.43;3.13;;;18.40;99.90;;;;;;5024084;28;20204;-64
2021/06/02 08:52:05;;;;;;;3.30;3.07;;;18.50;99.90;;;;;;5014393;28;20623;-64
2021/06/02 08:54:31;;;;;;;4.77;3.50;;;18.60;99.90;;;;;;5021231;28;20999;-65
2021/06/02 08:57:00;;;;;;;4.03;3.17;;;18.60;99.90;;;;;;5013063;28;21195;-65
2021/06/02 08:59:26;;;;;;;3.00;2.80;;;18.60;99.90;;;;;;5023651;28;21047;-65
2021/06/02 09:01:51;;;;;;;6.20;3.30;;;18.70;99.90;;;;;;5021633;28;20623;-64
2021/06/02 09:04:19;;;;;;;3.77;3.37;;;18.70;99.90;;;;;;5032385;28;20231;-64
2021/06/02 09:06:48;;;;;;;2.80;2.60;;;18.80;99.90;;;;;;5016441;28;20211;-64
2021/06/02 09:09:18;;;;;;;3.27;2.50;;;18.90;99.90;;;;;;5018823;28;20663;-66
2021/06/02 09:11:46;;;;;;;3.23;2.90;;;19.00;99.90;;;;;;5024558;28;20618;-64
2021/06/02 09:14:32;;;;;;;3.03;2.80;;;19.00;99.90;;;;;;5022173;28;20659;-64
2021/06/02 09:17:01;;;;;;;3.70;3.17;;;19.10;99.90;;;;;;5011612;28;20709;-65
2021/06/02 09:19:33;;;;;;;3.47;3.10;;;19.10;99.90;;;;;;5005108;28;21137;-65
2021/06/02 09:22:01;;;;;;;4.57;2.93;;;19.20;99.90;;;;;;5019128;28;20621;-67
2021/06/02 09:24:52;;;;;;;3.20;2.90;;;19.20;99.90;;;;;;5011789;28;20680;-66
2021/06/02 09:27:38;;;;;;;3.80;3.03;;;19.30;99.90;;;;;;5008776;28;20706;-65
2021/06/02 09:30:04;;;;;;;3.60;3.30;;;19.20;99.90;;;;;;5010801;28;20701;-66
2021/06/02 09:32:41;;;;;;;4.60;2.93;;;19.40;99.90;;;;;;5016723;28;20610;-65
2021/06/02 09:35:08;;;;;;;3.77;3.20;;;19.60;99.90;;;;;;5016320;28;20631;-65
2021/06/02 09:37:50;;;;;;;3.60;3.30;;;19.70;99.90;;;;;;5012547;28;20728;-65
2021/06/02 09:40:26;;;;;;;3.60;3.27;;;19.80;99.90;;;;;;5006007;28;20708;-64
2021/06/02 09:42:54;;;;;;;3.17;2.67;;;19.90;99.90;;;;;;5019727;28;20807;-65
2021/06/02 09:45:21;;;;;;;3.00;2.80;;;20.00;99.90;;;;;;4995479;28;20639;-64
2021/06/02 09:47:50;;;;;;;4.10;3.13;;;20.20;99.90;;;;;;5016780;28;20614;-65
2021/06/02 09:50:36;;;;;;;3.50;3.20;;;20.30;99.90;;;;;;5014215;28;20801;-65
2021/06/02 09:53:04;;;;;;;3.73;3.17;;;20.50;99.90;;;;;;5008920;28;21213;-65
2021/06/02 09:55:41;;;;;;;3.60;3.30;;;20.50;99.90;;;;;;5003530;28;20611;-65
2021/06/02 09:58:09;;;;;;;4.60;3.80;;;20.40;99.90;;;;;;5035789;28;20701;-65
2021/06/02 10:00:53;;;;;;;4.40;3.10;;;20.50;99.90;;;;;;5024195;28;20647;-65
2021/06/02 10:03:20;;;;;;;3.97;3.07;;;20.60;99.90;;;;;;5009902;28;20646;-64
2021/06/02 10:05:50;;;;;;;3.97;3.40;;;20.80;99.90;;;;;;5011230;28;20721;-65
2021/06/02 10:08:29;;;;;;;2.90;2.60;;;20.70;99.90;;;;;;5037856;23;20670;-65
2021/06/02 10:10:56;;;;;;;4.00;3.13;;;20.80;99.90;;;;;;4990323;28;20647;-66
2021/06/02 10:13:27;;;;;;;3.63;3.23;;;20.80;99.90;;;;;;5010208;28;20629;-66
2021/06/02 10:15:53;;;;;;;3.00;2.80;;;20.80;99.90;;;;;;4981843;28;21174;-66
2021/06/02 10:18:25;;;;;;;3.23;3.03;;;20.80;99.90;;;;;;4982323;28;20826;-66
2021/06/02 10:21:11;;;;;;;26.10;11.00;;;20.80;99.90;;;;;;4986340;28;20733;-66
2021/06/02 10:23:44;;;;;;;13.07;8.17;;;20.90;99.90;;;;;;4976463;28;20649;-66
2021/06/02 10:26:14;;;;;;;8.53;5.90;;;20.90;99.90;;;;;;4983347;28;20648;-66
2021/06/02 10:28:41;;;;;;;8.50;4.93;;;21.00;99.90;;;;;;4974696;28;20636;-66
2021/06/02 10:31:09;;;;;;;6.13;4.37;;;21.10;99.90;;;;;;4997103;28;21716;-66
2021/06/02 10:33:35;;;;;;;6.10;4.30;;;21.20;99.90;;;;;;4982225;28;20652;-67
2021/06/02 10:36:04;;;;;;;5.93;2.93;;;21.30;99.90;;;;;;4994333;28;20617;-67
2021/06/02 10:38:51;;;;;;;5.63;3.37;;;21.30;99.90;;;;;;4983497;28;20734;-66
2021/06/02 10:41:48;;;;;;;3.07;2.77;;;21.40;99.90;;;;;;4980083;28;20703;-70
2021/06/02 10:44:20;;;;;;;3.83;2.90;;;21.40;99.90;;;;;;4995012;28;20648;-66
2021/06/02 10:46:48;;;;;;;2.97;2.77;;;21.30;99.90;;;;;;4994742;28;20616;-67
2021/06/02 10:49:14;;;;;;;3.50;3.10;;;21.30;99.90;;;;;;4991000;28;20644;-67
2021/06/02 10:51:43;;;;;;;4.00;3.13;;;21.30;99.90;;;;;;4988134;28;20646;-67
2021/06/02 10:54:11;;;;;;;3.37;3.17;;;21.30;99.90;;;;;;4987805;28;21078;-67
2021/06/02 10:56:39;;;;;;;2.70;2.50;;;21.40;99.90;;;;;;4990467;28;20616;-67
2021/06/02 10:59:44;;;;;;;3.07;2.80;;;21.50;99.90;;;;;;4988218;28;21072;-67
2021/06/02 11:02:16;;;;;;;3.00;2.80;;;21.60;99.90;;;;;;4988870;28;20629;-67
2021/06/02 11:05:05;;;;;;;3.50;2.93;;;21.70;99.90;;;;;;5005731;28;20706;-67
2021/06/02 11:07:33;;;;;;;2.90;2.70;;;21.80;99.90;;;;;;4982699;28;20623;-67
2021/06/02 11:10:03;;;;;;;2.83;2.63;;;21.90;99.90;;;;;;4992381;28;20721;-67
2021/06/02 11:12:50;;;;;;;2.90;2.60;;;21.90;99.90;;;;;;4991174;28;20620;-67
2021/06/02 11:15:35;;;;;;;3.20;2.90;;;21.90;99.90;;;;;;4979278;28;20645;-65
2021/06/02 11:18:18;;;;;;;3.40;3.10;;;21.90;99.90;;;;;;4983069;28;20696;-68
2021/06/02 11:20:47;;;;;;;3.20;3.00;;;22.10;99.90;;;;;;4975127;28;21023;-67
2021/06/02 11:23:16;;;;;;;3.80;3.30;;;22.20;99.90;;;;;;4975989;28;20937;-67
2021/06/02 11:25:42;;;;;;;3.93;3.40;;;22.40;99.90;;;;;;4985449;28;21508;-66
2021/06/02 11:28:28;;;;;;;3.50;2.90;;;22.40;99.90;;;;;;4987456;28;20613;-67
2021/06/02 11:31:26;;;;;;;3.00;2.80;;;22.40;99.90;;;;;;4990639;28;20648;-66
2021/06/02 11:34:13;;;;;;;3.20;3.00;;;22.40;99.90;;;;;;4983722;28;20645;-66
2021/06/02 11:36:57;;;;;;;3.10;2.80;;;22.40;99.90;;;;;;4979142;28;20640;-66
2021/06/02 11:39:23;;;;;;;3.50;3.20;;;22.40;99.90;;;;;;4977858;28;20671;-66
2021/06/02 11:41:56;;;;;;;3.33;3.03;;;22.40;99.90;;;;;;5003330;28;20640;-66
2021/06/02 11:44:22;;;;;;;3.20;2.90;;;22.50;99.90;;;;;;4982412;28;20633;-66
2021/06/02 11:46:49;;;;;;;3.43;3.20;;;22.70;99.90;;;;;;4992682;28;20616;-67
2021/06/02 11:49:32;;;;;;;4.27;3.13;;;22.80;99.90;;;;;;4994612;28;20628;-67
2021/06/02 11:52:13;;;;;;;4.60;3.07;;;23.00;99.90;;;;;;4978079;28;20617;-66
2021/06/02 11:54:51;;;;;;;3.67;3.37;;;23.30;99.90;;;;;;4980503;28;20644;-66
2021/06/02 11:57:35;;;;;;;4.37;3.40;;;23.40;99.90;;;;;;4979315;28;21296;-66
2021/06/02 12:00:09;;;;;;;3.80;3.23;;;23.50;99.90;;;;;;4972348;28;20652;-68
2021/06/02 12:02:37;;;;;;;3.30;3.00;;;23.50;99.90;;;;;;4957413;28;20626;-67
2021/06/02 12:05:22;;;;;;;3.57;3.27;;;23.60;99.90;;;;;;4985998;28;20637;-66
2021/06/02 12:07:53;;;;;;;3.57;3.27;;;23.60;99.90;;;;;;4983795;28;20606;-66
2021/06/02 12:10:20;;;;;;;4.23;3.00;;;23.70;99.90;;;;;;4976831;28;21007;-66
2021/06/02 12:12:46;;;;;;;3.77;3.47;;;23.80;99.90;;;;;;4979381;28;20667;-67
2021/06/02 12:15:16;;;;;;;3.70;3.40;;;23.90;99.90;;;;;;4987912;28;20619;-67
2021/06/02 12:17:42;;;;;;;3.40;3.10;;;24.10;99.90;;;;;;4980061;28;20656;-66
2021/06/02 12:20:24;;;;;;;4.23;3.80;;;24.20;99.90;;;;;;4986555;28;20747;-65
2021/06/02 12:22:51;;;;;;;5.20;3.47;;;24.20;99.90;;;;;;4980252;28;20617;-66
2021/06/02 12:25:18;;;;;;;5.47;4.53;;;24.20;99.90;;;;;;5014028;28;20714;-66
2021/06/02 12:27:59;;;;;;;4.00;3.70;;;24.40;99.90;;;;;;4988872;28;20622;-68
2021/06/02 12:30:34;;;;;;;4.03;3.60;;;24.40;99.90;;;;;;4989853;28;20754;-67
2021/06/02 12:33:10;;;;;;;4.17;3.67;;;24.50;99.90;;;;;;4984878;28;20627;-67
2021/06/02 12:35:38;;;;;;;3.60;3.30;;;24.60;99.90;;;;;;4982702;28;20608;-68
2021/06/02 12:38:07;;;;;;;4.00;3.70;;;24.60;99.90;;;;;;4986190;28;20649;-67
2021/06/02 12:40:35;;;;;;;4.00;3.60;;;24.60;99.90;;;;;;4996417;28;21181;-69
2021/06/02 12:43:03;;;;;;;3.33;3.13;;;24.70;99.90;;;;;;4985127;28;23445;-67
2021/06/02 12:45:31;;;;;;;4.00;3.70;;;24.80;99.90;;;;;;4986158;28;20662;-68
2021/06/02 12:47:57;;;;;;;4.20;3.80;;;24.90;99.90;;;;;;4983384;28;20666;-68
2021/06/02 12:50:47;;;;;;;4.00;3.70;;;25.10;99.90;;;;;;4989189;28;21175;-68
2021/06/02 12:53:14;;;;;;;3.70;3.17;;;25.20;99.90;;;;;;4979237;28;20224;-66
2021/06/02 12:55:47;;;;;;;4.30;3.90;;;25.10;99.90;;;;;;4986447;28;20660;-66
2021/06/02 12:58:15;;;;;;;8.03;3.73;;;25.00;99.90;;;;;;4980733;28;21022;-66
2021/06/02 13:00:45;;;;;;;5.97;3.40;;;25.00;99.90;;;;;;4992283;28;20947;-67
2021/06/02 13:03:23;;;;;;;3.90;3.50;;;25.20;99.90;;;;;;4990757;28;20636;-67
2021/06/02 13:05:50;;;;;;;3.97;3.63;;;25.20;99.90;;;;;;4997916;28;20636;-68
2021/06/02 13:08:16;;;;;;;4.43;3.80;;;25.20;99.90;;;;;;4991015;28;21070;-67
2021/06/02 13:10:44;;;;;;;4.07;3.63;;;25.20;99.90;;;;;;4990226;28;20736;-68
2021/06/02 13:13:12;;;;;;;4.30;3.80;;;25.20;99.90;;;;;;4991617;28;20375;-67
2021/06/02 13:15:39;;;;;;;4.70;3.70;;;25.30;99.90;;;;;;4995594;28;20620;-67
2021/06/02 13:18:06;;;;;;;3.73;3.43;;;25.40;99.90;;;;;;4992818;28;20653;-67
2021/06/02 13:20:40;;;;;;;4.40;4.10;;;25.50;99.90;;;;;;4983156;28;20644;-67
2021/06/02 13:23:26;;;;;;;4.00;3.70;;;25.50;99.90;;;;;;4988874;28;22928;-67
2021/06/02 13:26:08;;;;;;;6.27;4.07;;;25.50;99.90;;;;;;4987697;28;21064;-67
2021/06/02 13:28:43;;;;;;;4.70;4.10;;;25.50;99.90;;;;;;4993289;28;20655;-67
2021/06/02 13:31:14;;;;;;;4.23;3.83;;;25.60;99.90;;;;;;4974160;28;20617;-67
2021/06/02 13:33:48;;;;;;;5.07;4.30;;;25.70;99.90;;;;;;4990383;28;21471;-66
2021/06/02 13:36:22;;;;;;;4.80;4.10;;;25.80;99.90;;;;;;4979681;28;20648;-66